sensor_id;sensor_type;location;lat;lon;timestamp;pressure;altitude;pressure_sealevel;temperature;humidity
73220;BME280;61434;43.538;-5.688;2022-09-27T00:02:09;101687.84;;;17.71;65.63
73220;BME280;61434;43.538;-5.688;2022-09-27T00:04:34;101688.47;;;17.65;66.07
73220;BME280;61434;43.538;-5.688;2022-09-27T00:07:00;101680.47;;;17.81;65.56
73220;BME280;61434;43.538;-5.688;2022-09-27T00:09:26;101684.97;;;17.73;65.51
73220;BME280;61434;43.538;-5.688;2022-09-27T00:11:51;101680.25;;;17.75;65.29
73220;BME280;61434;43.538;-5.688;2022-09-27T00:14:16;101677.22;;;17.78;65.22
73220;BME280;61434;43.538;-5.688;2022-09-27T00:16:42;101678.47;;;17.83;64.96
73220;BME280;61434;43.538;-5.688;2022-09-27T00:19:12;101675.66;;;17.75;65.54
73220;BME280;61434;43.538;-5.688;2022-09-27T00:21:38;101685.94;;;17.81;65.43
73220;BME280;61434;43.538;-5.688;2022-09-27T00:24:03;101676.34;;;17.77;65.87
73220;BME280;61434;43.538;-5.688;2022-09-27T00:26:29;101682.22;;;17.82;65.78
73220;BME280;61434;43.538;-5.688;2022-09-27T00:28:54;101683.41;;;17.70;66.57
73220;BME280;61434;43.538;-5.688;2022-09-27T00:33:45;101686.09;;;17.80;66.10
73220;BME280;61434;43.538;-5.688;2022-09-27T00:36:11;101674.72;;;17.84;66.22
73220;BME280;61434;43.538;-5.688;2022-09-27T00:38:36;101668.63;;;17.73;66.78
73220;BME280;61434;43.538;-5.688;2022-09-27T00:41:02;101666.66;;;17.65;67.18
73220;BME280;61434;43.538;-5.688;2022-09-27T00:43:40;101664.59;;;17.77;67.04
73220;BME280;61434;43.538;-5.688;2022-09-27T00:46:06;101668.03;;;17.79;66.95
73220;BME280;61434;43.538;-5.688;2022-09-27T00:48:32;101669.13;;;17.86;67.00
73220;BME280;61434;43.538;-5.688;2022-09-27T00:51:01;101669.34;;;17.75;67.36
73220;BME280;61434;43.538;-5.688;2022-09-27T00:53:48;101669.91;;;17.78;67.34
73220;BME280;61434;43.538;-5.688;2022-09-27T00:56:19;101683.59;;;17.86;66.89
73220;BME280;61434;43.538;-5.688;2022-09-27T00:58:47;101687.66;;;17.82;67.35
73220;BME280;61434;43.538;-5.688;2022-09-27T01:01:14;101679.00;;;17.87;67.28
73220;BME280;61434;43.538;-5.688;2022-09-27T01:03:58;101689.22;;;17.85;67.05
73220;BME280;61434;43.538;-5.688;2022-09-27T01:06:24;101690.22;;;17.84;67.02
73220;BME280;61434;43.538;-5.688;2022-09-27T01:08:50;101695.22;;;17.88;66.90
73220;BME280;61434;43.538;-5.688;2022-09-27T01:11:34;101694.78;;;17.65;67.52
73220;BME280;61434;43.538;-5.688;2022-09-27T01:19:19;101691.81;;;17.59;68.17
73220;BME280;61434;43.538;-5.688;2022-09-27T01:22:05;101691.25;;;17.55;68.46
73220;BME280;61434;43.538;-5.688;2022-09-27T01:25:20;101691.25;;;17.55;68.24
73220;BME280;61434;43.538;-5.688;2022-09-27T01:30:12;101682.13;;;17.47;69.03
73220;BME280;61434;43.538;-5.688;2022-09-27T01:32:51;101661.97;;;17.39;69.20
73220;BME280;61434;43.538;-5.688;2022-09-27T01:37:48;101654.00;;;17.28;69.89
73220;BME280;61434;43.538;-5.688;2022-09-27T01:40:23;101653.25;;;17.36;69.78
73220;BME280;61434;43.538;-5.688;2022-09-27T01:43:05;101649.16;;;17.22;70.32
73220;BME280;61434;43.538;-5.688;2022-09-27T01:45:37;101657.03;;;17.25;70.22
73220;BME280;61434;43.538;-5.688;2022-09-27T01:48:09;101647.22;;;17.32;70.22
73220;BME280;61434;43.538;-5.688;2022-09-27T01:50:37;101652.00;;;17.30;70.24
73220;BME280;61434;43.538;-5.688;2022-09-27T01:53:05;101649.25;;;17.30;70.20
73220;BME280;61434;43.538;-5.688;2022-09-27T01:55:34;101651.25;;;17.28;70.23
73220;BME280;61434;43.538;-5.688;2022-09-27T01:58:11;101652.53;;;17.34;69.99
73220;BME280;61434;43.538;-5.688;2022-09-27T02:00:39;101648.97;;;17.51;69.74
73220;BME280;61434;43.538;-5.688;2022-09-27T02:03:18;101661.66;;;17.42;69.68
73220;BME280;61434;43.538;-5.688;2022-09-27T02:05:46;101665.94;;;17.45;69.63
73220;BME280;61434;43.538;-5.688;2022-09-27T02:10:53;101683.34;;;17.34;70.07
73220;BME280;61434;43.538;-5.688;2022-09-27T02:13:20;101688.53;;;17.28;70.08
73220;BME280;61434;43.538;-5.688;2022-09-27T02:18:16;101694.28;;;17.25;70.53
73220;BME280;61434;43.538;-5.688;2022-09-27T02:20:48;101686.53;;;17.30;70.48
73220;BME280;61434;43.538;-5.688;2022-09-27T02:25:43;101665.94;;;17.17;72.05
73220;BME280;61434;43.538;-5.688;2022-09-27T02:30:48;101677.91;;;17.34;71.63
73220;BME280;61434;43.538;-5.688;2022-09-27T02:33:13;101688.81;;;17.25;71.57
73220;BME280;61434;43.538;-5.688;2022-09-27T02:35:38;101687.00;;;17.25;71.47
73220;BME280;61434;43.538;-5.688;2022-09-27T02:38:04;101683.09;;;17.28;71.87
73220;BME280;61434;43.538;-5.688;2022-09-27T02:40:32;101668.16;;;17.32;71.59
73220;BME280;61434;43.538;-5.688;2022-09-27T02:42:57;101670.44;;;17.36;71.58
73220;BME280;61434;43.538;-5.688;2022-09-27T02:45:24;101679.50;;;17.27;71.50
73220;BME280;61434;43.538;-5.688;2022-09-27T02:50:32;101670.22;;;17.48;70.64
73220;BME280;61434;43.538;-5.688;2022-09-27T02:53:15;101671.53;;;17.43;70.77
73220;BME280;61434;43.538;-5.688;2022-09-27T02:55:48;101667.81;;;17.44;71.22
73220;BME280;61434;43.538;-5.688;2022-09-27T03:00:50;101668.34;;;17.48;71.37
73220;BME280;61434;43.538;-5.688;2022-09-27T03:03:21;101659.25;;;17.39;71.52
73220;BME280;61434;43.538;-5.688;2022-09-27T03:05:52;101654.88;;;17.47;71.84
73220;BME280;61434;43.538;-5.688;2022-09-27T03:08:19;101653.88;;;17.48;71.56
73220;BME280;61434;43.538;-5.688;2022-09-27T03:10:44;101651.31;;;17.46;71.50
73220;BME280;61434;43.538;-5.688;2022-09-27T03:13:09;101647.44;;;17.49;71.45
73220;BME280;61434;43.538;-5.688;2022-09-27T03:15:35;101646.47;;;17.58;71.25
73220;BME280;61434;43.538;-5.688;2022-09-27T03:18:00;101650.75;;;17.42;71.30
73220;BME280;61434;43.538;-5.688;2022-09-27T03:20:26;101645.16;;;17.44;71.31
73220;BME280;61434;43.538;-5.688;2022-09-27T03:22:51;101635.44;;;17.41;71.48
73220;BME280;61434;43.538;-5.688;2022-09-27T03:25:17;101625.31;;;17.52;71.25
73220;BME280;61434;43.538;-5.688;2022-09-27T03:27:43;101640.25;;;17.48;70.82
73220;BME280;61434;43.538;-5.688;2022-09-27T03:30:09;101643.53;;;17.51;70.87
73220;BME280;61434;43.538;-5.688;2022-09-27T03:32:35;101643.38;;;17.53;70.72
73220;BME280;61434;43.538;-5.688;2022-09-27T03:35:00;101635.53;;;17.50;70.54
73220;BME280;61434;43.538;-5.688;2022-09-27T03:37:25;101639.97;;;17.51;70.91
73220;BME280;61434;43.538;-5.688;2022-09-27T03:39:53;101639.97;;;17.51;70.23
73220;BME280;61434;43.538;-5.688;2022-09-27T03:42:18;101643.06;;;17.56;70.14
73220;BME280;61434;43.538;-5.688;2022-09-27T03:44:44;101647.66;;;17.55;70.07
73220;BME280;61434;43.538;-5.688;2022-09-27T03:47:09;101651.53;;;17.53;69.92
73220;BME280;61434;43.538;-5.688;2022-09-27T03:49:34;101648.53;;;17.56;69.79
73220;BME280;61434;43.538;-5.688;2022-09-27T03:52:00;101661.13;;;17.57;69.72
73220;BME280;61434;43.538;-5.688;2022-09-27T03:54:25;101647.66;;;17.55;69.62
73220;BME280;61434;43.538;-5.688;2022-09-27T03:56:50;101650.50;;;17.63;69.17
73220;BME280;61434;43.538;-5.688;2022-09-27T03:59:16;101649.06;;;17.59;69.54
73220;BME280;61434;43.538;-5.688;2022-09-27T04:01:41;101657.38;;;17.58;69.35
73220;BME280;61434;43.538;-5.688;2022-09-27T04:04:08;101653.41;;;17.52;69.40
73220;BME280;61434;43.538;-5.688;2022-09-27T04:06:34;101648.06;;;17.60;69.44
73220;BME280;61434;43.538;-5.688;2022-09-27T04:09:00;101659.72;;;17.53;69.41
73220;BME280;61434;43.538;-5.688;2022-09-27T04:11:25;101649.75;;;17.61;69.18
73220;BME280;61434;43.538;-5.688;2022-09-27T04:13:50;101669.63;;;17.54;69.16
73220;BME280;61434;43.538;-5.688;2022-09-27T04:16:16;101667.81;;;17.62;68.78
73220;BME280;61434;43.538;-5.688;2022-09-27T04:18:41;101661.84;;;17.59;69.20
73220;BME280;61434;43.538;-5.688;2022-09-27T04:21:07;101672.03;;;17.57;69.45
73220;BME280;61434;43.538;-5.688;2022-09-27T04:23:33;101658.41;;;17.57;70.07
73220;BME280;61434;43.538;-5.688;2022-09-27T04:25:58;101650.22;;;17.57;70.33
73220;BME280;61434;43.538;-5.688;2022-09-27T04:28:24;101653.66;;;17.59;70.11
73220;BME280;61434;43.538;-5.688;2022-09-27T04:30:49;101653.03;;;17.65;70.13
73220;BME280;61434;43.538;-5.688;2022-09-27T04:33:14;101642.78;;;17.59;70.75
73220;BME280;61434;43.538;-5.688;2022-09-27T04:35:41;101642.28;;;17.46;71.12
73220;BME280;61434;43.538;-5.688;2022-09-27T04:38:24;101638.78;;;17.35;71.44
73220;BME280;61434;43.538;-5.688;2022-09-27T04:40:50;101632.47;;;17.53;70.65
73220;BME280;61434;43.538;-5.688;2022-09-27T04:43:15;101620.09;;;17.40;71.05
73220;BME280;61434;43.538;-5.688;2022-09-27T04:45:44;101620.88;;;17.51;70.59
73220;BME280;61434;43.538;-5.688;2022-09-27T04:48:09;101620.50;;;17.46;70.66
73220;BME280;61434;43.538;-5.688;2022-09-27T04:50:35;101617.59;;;17.47;70.73
73220;BME280;61434;43.538;-5.688;2022-09-27T04:53:00;101621.84;;;17.59;70.38
73220;BME280;61434;43.538;-5.688;2022-09-27T04:55:25;101623.72;;;17.59;69.82
73220;BME280;61434;43.538;-5.688;2022-09-27T04:57:52;101620.97;;;17.59;70.00
73220;BME280;61434;43.538;-5.688;2022-09-27T05:00:18;101630.06;;;17.67;69.89
73220;BME280;61434;43.538;-5.688;2022-09-27T05:02:44;101635.19;;;17.53;70.22
73220;BME280;61434;43.538;-5.688;2022-09-27T05:05:09;101637.72;;;17.64;70.17
73220;BME280;61434;43.538;-5.688;2022-09-27T05:07:36;101638.69;;;17.63;70.08
73220;BME280;61434;43.538;-5.688;2022-09-27T05:10:01;101655.28;;;17.52;70.54
73220;BME280;61434;43.538;-5.688;2022-09-27T05:12:26;101652.16;;;17.74;70.50
73220;BME280;61434;43.538;-5.688;2022-09-27T05:14:52;101657.72;;;17.55;70.86
73220;BME280;61434;43.538;-5.688;2022-09-27T05:17:17;101651.81;;;17.59;70.78
73220;BME280;61434;43.538;-5.688;2022-09-27T05:19:44;101653.41;;;17.52;71.32
73220;BME280;61434;43.538;-5.688;2022-09-27T05:22:09;101665.25;;;17.61;70.87
73220;BME280;61434;43.538;-5.688;2022-09-27T05:24:35;101665.56;;;17.58;70.85
73220;BME280;61434;43.538;-5.688;2022-09-27T05:27:02;101669.00;;;17.60;71.08
73220;BME280;61434;43.538;-5.688;2022-09-27T05:29:28;101664.50;;;17.68;70.42
73220;BME280;61434;43.538;-5.688;2022-09-27T05:31:53;101672.56;;;17.60;70.63
73220;BME280;61434;43.538;-5.688;2022-09-27T05:34:19;101670.88;;;17.59;70.83
73220;BME280;61434;43.538;-5.688;2022-09-27T05:36:48;101660.81;;;17.60;70.73
73220;BME280;61434;43.538;-5.688;2022-09-27T05:39:13;101671.66;;;17.69;70.34
73220;BME280;61434;43.538;-5.688;2022-09-27T05:41:41;101669.78;;;17.70;70.26
73220;BME280;61434;43.538;-5.688;2022-09-27T05:44:06;101652.00;;;17.76;70.14
73220;BME280;61434;43.538;-5.688;2022-09-27T05:46:32;101655.16;;;17.71;69.74
73220;BME280;61434;43.538;-5.688;2022-09-27T05:48:57;101654.91;;;17.64;69.31
73220;BME280;61434;43.538;-5.688;2022-09-27T05:51:22;101662.38;;;17.62;69.08
73220;BME280;61434;43.538;-5.688;2022-09-27T05:53:48;101659.66;;;17.62;68.92
73220;BME280;61434;43.538;-5.688;2022-09-27T05:56:13;101674.22;;;17.71;68.58
73220;BME280;61434;43.538;-5.688;2022-09-27T05:58:38;101672.94;;;17.75;68.37
73220;BME280;61434;43.538;-5.688;2022-09-27T06:01:07;101680.19;;;17.84;68.25
73220;BME280;61434;43.538;-5.688;2022-09-27T06:03:33;101674.81;;;17.75;68.50
73220;BME280;61434;43.538;-5.688;2022-09-27T06:06:00;101685.38;;;17.95;68.12
73220;BME280;61434;43.538;-5.688;2022-09-27T06:08:26;101689.28;;;17.75;67.93
73220;BME280;61434;43.538;-5.688;2022-09-27T06:10:58;101689.44;;;17.74;68.49
73220;BME280;61434;43.538;-5.688;2022-09-27T06:13:24;101697.03;;;17.70;68.29
73220;BME280;61434;43.538;-5.688;2022-09-27T06:15:51;101686.41;;;17.49;68.47
73220;BME280;61434;43.538;-5.688;2022-09-27T06:18:16;101706.81;;;17.63;67.98
73220;BME280;61434;43.538;-5.688;2022-09-27T06:20:42;101710.47;;;17.54;67.86
73220;BME280;61434;43.538;-5.688;2022-09-27T06:23:09;101712.44;;;17.61;68.07
73220;BME280;61434;43.538;-5.688;2022-09-27T06:25:35;101714.13;;;17.62;67.47
73220;BME280;61434;43.538;-5.688;2022-09-27T06:28:01;101716.72;;;17.64;67.73
73220;BME280;61434;43.538;-5.688;2022-09-27T06:30:26;101724.50;;;17.59;67.50
73220;BME280;61434;43.538;-5.688;2022-09-27T06:32:55;101732.75;;;17.67;67.15
73220;BME280;61434;43.538;-5.688;2022-09-27T06:35:21;101739.59;;;17.71;67.07
73220;BME280;61434;43.538;-5.688;2022-09-27T06:37:49;101743.66;;;17.67;67.60
73220;BME280;61434;43.538;-5.688;2022-09-27T06:40:14;101742.06;;;17.74;68.06
73220;BME280;61434;43.538;-5.688;2022-09-27T06:42:39;101736.22;;;17.87;67.96
73220;BME280;61434;43.538;-5.688;2022-09-27T06:45:05;101736.09;;;17.88;67.84
73220;BME280;61434;43.538;-5.688;2022-09-27T06:47:34;101737.03;;;17.79;68.68
73220;BME280;61434;43.538;-5.688;2022-09-27T06:49:59;101741.44;;;17.80;68.56
73220;BME280;61434;43.538;-5.688;2022-09-27T06:52:26;101741.84;;;17.85;68.43
73220;BME280;61434;43.538;-5.688;2022-09-27T06:54:51;101745.22;;;17.97;68.10
73220;BME280;61434;43.538;-5.688;2022-09-27T06:57:16;101747.84;;;17.89;68.54
73220;BME280;61434;43.538;-5.688;2022-09-27T07:00:01;101747.53;;;17.74;69.10
73220;BME280;61434;43.538;-5.688;2022-09-27T07:02:45;101743.16;;;17.81;68.71
73220;BME280;61434;43.538;-5.688;2022-09-27T07:05:11;101747.91;;;17.79;68.40
73220;BME280;61434;43.538;-5.688;2022-09-27T07:07:36;101749.34;;;17.83;68.70
73220;BME280;61434;43.538;-5.688;2022-09-27T07:10:01;101742.03;;;18.02;68.15
73220;BME280;61434;43.538;-5.688;2022-09-27T07:12:27;101741.34;;;18.17;67.69
73220;BME280;61434;43.538;-5.688;2022-09-27T07:14:52;101759.88;;;18.14;67.11
73220;BME280;61434;43.538;-5.688;2022-09-27T07:17:18;101768.34;;;18.11;67.41
73220;BME280;61434;43.538;-5.688;2022-09-27T07:19:43;101762.66;;;18.04;67.44
73220;BME280;61434;43.538;-5.688;2022-09-27T07:22:08;101753.66;;;18.22;66.80
73220;BME280;61434;43.538;-5.688;2022-09-27T07:24:33;101759.06;;;18.39;66.83
73220;BME280;61434;43.538;-5.688;2022-09-27T07:26:59;101769.53;;;18.44;66.65
73220;BME280;61434;43.538;-5.688;2022-09-27T07:29:24;101771.69;;;18.58;66.14
73220;BME280;61434;43.538;-5.688;2022-09-27T07:31:49;101778.84;;;18.69;65.58
73220;BME280;61434;43.538;-5.688;2022-09-27T07:34:16;101788.84;;;18.86;65.48
73220;BME280;61434;43.538;-5.688;2022-09-27T07:36:43;101785.16;;;18.95;64.60
73220;BME280;61434;43.538;-5.688;2022-09-27T07:39:08;101789.09;;;18.93;64.22
73220;BME280;61434;43.538;-5.688;2022-09-27T07:41:33;101787.53;;;19.16;63.92
73220;BME280;61434;43.538;-5.688;2022-09-27T07:43:59;101780.19;;;19.17;63.65
73220;BME280;61434;43.538;-5.688;2022-09-27T07:46:24;101790.19;;;19.08;63.95
73220;BME280;61434;43.538;-5.688;2022-09-27T07:48:50;101783.78;;;19.17;64.16
73220;BME280;61434;43.538;-5.688;2022-09-27T07:51:16;101783.59;;;19.19;64.09
73220;BME280;61434;43.538;-5.688;2022-09-27T07:53:41;101789.97;;;19.02;64.56
73220;BME280;61434;43.538;-5.688;2022-09-27T07:56:07;101795.56;;;19.18;64.34
73220;BME280;61434;43.538;-5.688;2022-09-27T07:58:32;101793.63;;;19.10;64.75
73220;BME280;61434;43.538;-5.688;2022-09-27T08:00:58;101789.94;;;18.93;64.65
73220;BME280;61434;43.538;-5.688;2022-09-27T08:03:24;101794.06;;;18.98;64.57
73220;BME280;61434;43.538;-5.688;2022-09-27T08:05:50;101808.38;;;19.26;63.77
73220;BME280;61434;43.538;-5.688;2022-09-27T08:08:15;101801.66;;;19.12;63.44
73220;BME280;61434;43.538;-5.688;2022-09-27T08:10:41;101812.25;;;19.15;62.92
73220;BME280;61434;43.538;-5.688;2022-09-27T08:13:13;101811.34;;;19.06;63.60
73220;BME280;61434;43.538;-5.688;2022-09-27T08:15:41;101814.16;;;18.96;64.12
73220;BME280;61434;43.538;-5.688;2022-09-27T08:18:06;101821.97;;;18.91;64.79
73220;BME280;61434;43.538;-5.688;2022-09-27T08:20:33;101826.44;;;18.92;64.01
73220;BME280;61434;43.538;-5.688;2022-09-27T08:22:58;101820.09;;;18.92;64.07
73220;BME280;61434;43.538;-5.688;2022-09-27T08:25:24;101826.13;;;18.78;64.40
73220;BME280;61434;43.538;-5.688;2022-09-27T08:27:59;101812.84;;;18.83;64.41
73220;BME280;61434;43.538;-5.688;2022-09-27T08:30:25;101806.41;;;19.10;63.44
73220;BME280;61434;43.538;-5.688;2022-09-27T08:32:54;101810.53;;;19.40;61.78
73220;BME280;61434;43.538;-5.688;2022-09-27T08:35:20;101816.59;;;19.00;63.48
73220;BME280;61434;43.538;-5.688;2022-09-27T08:37:53;101814.88;;;18.99;64.11
73220;BME280;61434;43.538;-5.688;2022-09-27T08:40:18;101825.94;;;18.97;63.87
73220;BME280;61434;43.538;-5.688;2022-09-27T08:45:33;101833.75;;;18.92;63.63
73220;BME280;61434;43.538;-5.688;2022-09-27T08:48:02;101840.13;;;18.75;64.39
73220;BME280;61434;43.538;-5.688;2022-09-27T08:50:29;101841.91;;;18.84;64.44
73220;BME280;61434;43.538;-5.688;2022-09-27T08:53:03;101851.03;;;18.92;64.35
73220;BME280;61434;43.538;-5.688;2022-09-27T08:55:31;101851.50;;;18.88;64.27
73220;BME280;61434;43.538;-5.688;2022-09-27T08:58:01;101858.66;;;18.71;64.70
73220;BME280;61434;43.538;-5.688;2022-09-27T09:00:27;101852.63;;;18.67;65.06
73220;BME280;61434;43.538;-5.688;2022-09-27T09:02:54;101854.44;;;18.77;65.28
73220;BME280;61434;43.538;-5.688;2022-09-27T09:07:55;101853.25;;;18.97;65.02
73220;BME280;61434;43.538;-5.688;2022-09-27T09:15:59;101863.13;;;19.16;64.40
73220;BME280;61434;43.538;-5.688;2022-09-27T09:21:24;101862.84;;;20.13;60.94
73220;BME280;61434;43.538;-5.688;2022-09-27T09:26:21;101857.75;;;25.88;44.33
73220;BME280;61434;43.538;-5.688;2022-09-27T09:28:55;101862.13;;;28.29;39.23
73220;BME280;61434;43.538;-5.688;2022-09-27T09:33:54;101871.53;;;30.88;33.25
73220;BME280;61434;43.538;-5.688;2022-09-27T09:36:29;101876.22;;;30.27;32.67
73220;BME280;61434;43.538;-5.688;2022-09-27T09:39:13;101873.63;;;27.61;37.80
73220;BME280;61434;43.538;-5.688;2022-09-27T09:44:28;101872.81;;;25.85;41.75
73220;BME280;61434;43.538;-5.688;2022-09-27T09:46:56;101866.44;;;24.43;45.37
73220;BME280;61434;43.538;-5.688;2022-09-27T09:49:26;101876.78;;;23.75;46.00
73220;BME280;61434;43.538;-5.688;2022-09-27T09:52:04;101878.34;;;23.02;49.54
73220;BME280;61434;43.538;-5.688;2022-09-27T09:54:35;101868.38;;;22.78;50.93
73220;BME280;61434;43.538;-5.688;2022-09-27T09:57:05;101884.88;;;22.08;51.80
73220;BME280;61434;43.538;-5.688;2022-09-27T09:59:42;101891.28;;;22.00;53.08
73220;BME280;61434;43.538;-5.688;2022-09-27T10:02:14;101890.06;;;21.47;52.52
73220;BME280;61434;43.538;-5.688;2022-09-27T10:04:42;101885.06;;;20.77;53.72
73220;BME280;61434;43.538;-5.688;2022-09-27T10:07:07;101889.50;;;20.54;54.06
73220;BME280;61434;43.538;-5.688;2022-09-27T10:09:32;101901.47;;;20.10;54.58
73220;BME280;61434;43.538;-5.688;2022-09-27T10:11:58;101904.81;;;19.96;54.82
73220;BME280;61434;43.538;-5.688;2022-09-27T10:14:24;101906.03;;;20.02;55.52
73220;BME280;61434;43.538;-5.688;2022-09-27T10:16:55;101897.09;;;19.91;55.50
73220;BME280;61434;43.538;-5.688;2022-09-27T10:19:32;101898.91;;;19.75;55.39
73220;BME280;61434;43.538;-5.688;2022-09-27T10:22:00;101900.38;;;19.61;54.99
73220;BME280;61434;43.538;-5.688;2022-09-27T10:24:26;101899.06;;;19.73;54.98
73220;BME280;61434;43.538;-5.688;2022-09-27T10:26:52;101892.53;;;19.66;55.28
73220;BME280;61434;43.538;-5.688;2022-09-27T10:29:22;101891.41;;;19.59;55.58
73220;BME280;61434;43.538;-5.688;2022-09-27T10:31:48;101887.41;;;19.45;56.41
73220;BME280;61434;43.538;-5.688;2022-09-27T10:36:43;101888.19;;;19.55;57.02
73220;BME280;61434;43.538;-5.688;2022-09-27T10:39:18;101889.81;;;20.00;56.26
73220;BME280;61434;43.538;-5.688;2022-09-27T10:41:44;101895.94;;;19.68;57.13
73220;BME280;61434;43.538;-5.688;2022-09-27T10:46:45;101901.31;;;19.78;57.58
73220;BME280;61434;43.538;-5.688;2022-09-27T10:49:21;101895.00;;;19.59;58.00
73220;BME280;61434;43.538;-5.688;2022-09-27T10:51:53;101892.13;;;19.87;57.20
73220;BME280;61434;43.538;-5.688;2022-09-27T10:54:23;101895.56;;;19.89;57.04
73220;BME280;61434;43.538;-5.688;2022-09-27T10:59:26;101904.13;;;20.36;55.54
73220;BME280;61434;43.538;-5.688;2022-09-27T11:01:54;101896.25;;;20.33;55.52
73220;BME280;61434;43.538;-5.688;2022-09-27T11:04:31;101902.63;;;20.42;55.38
73220;BME280;61434;43.538;-5.688;2022-09-27T11:07:07;101893.66;;;20.90;53.67
73220;BME280;61434;43.538;-5.688;2022-09-27T11:09:43;101895.53;;;21.06;53.28
73220;BME280;61434;43.538;-5.688;2022-09-27T11:12:09;101905.28;;;21.17;53.01
73220;BME280;61434;43.538;-5.688;2022-09-27T11:14:34;101898.81;;;21.18;52.63
73220;BME280;61434;43.538;-5.688;2022-09-27T11:28:07;101902.50;;;20.60;53.57
73220;BME280;61434;43.538;-5.688;2022-09-27T11:33:17;101904.91;;;20.79;52.62
73220;BME280;61434;43.538;-5.688;2022-09-27T11:46:23;101907.28;;;20.58;53.22
73220;BME280;61434;43.538;-5.688;2022-09-27T12:14:01;101910.38;;;20.12;54.12
73220;BME280;61434;43.538;-5.688;2022-09-27T12:16:27;101911.47;;;20.36;54.27
73220;BME280;61434;43.538;-5.688;2022-09-27T12:18:54;101908.09;;;20.42;54.17
73220;BME280;61434;43.538;-5.688;2022-09-27T12:21:20;101916.56;;;20.22;54.20
73220;BME280;61434;43.538;-5.688;2022-09-27T12:23:47;101902.44;;;20.43;53.13
73220;BME280;61434;43.538;-5.688;2022-09-27T12:26:15;101900.94;;;20.49;52.72
73220;BME280;61434;43.538;-5.688;2022-09-27T12:28:44;101900.03;;;20.40;52.72
73220;BME280;61434;43.538;-5.688;2022-09-27T12:31:16;101899.94;;;20.58;52.46
73220;BME280;61434;43.538;-5.688;2022-09-27T12:33:46;101897.53;;;20.63;51.68
73220;BME280;61434;43.538;-5.688;2022-09-27T12:36:15;101892.59;;;20.67;51.50
73220;BME280;61434;43.538;-5.688;2022-09-27T12:38:49;101889.16;;;20.65;51.31
73220;BME280;61434;43.538;-5.688;2022-09-27T12:41:18;101884.88;;;20.62;52.12
73220;BME280;61434;43.538;-5.688;2022-09-27T12:43:46;101890.41;;;20.87;51.58
73220;BME280;61434;43.538;-5.688;2022-09-27T12:46:35;101885.63;;;20.89;50.41
73220;BME280;61434;43.538;-5.688;2022-09-27T12:49:05;101891.09;;;20.89;50.33
73220;BME280;61434;43.538;-5.688;2022-09-27T12:51:45;101888.66;;;20.69;50.07
73220;BME280;61434;43.538;-5.688;2022-09-27T12:56:55;101880.63;;;20.76;49.94
73220;BME280;61434;43.538;-5.688;2022-09-27T13:10:09;101878.06;;;20.83;47.82
73220;BME280;61434;43.538;-5.688;2022-09-27T13:12:38;101877.91;;;21.00;47.83
73220;BME280;61434;43.538;-5.688;2022-09-27T13:17:51;101865.91;;;21.01;47.58
73220;BME280;61434;43.538;-5.688;2022-09-27T13:22:55;101861.09;;;21.36;46.40
73220;BME280;61434;43.538;-5.688;2022-09-27T13:25:47;101863.44;;;21.64;46.01
73220;BME280;61434;43.538;-5.688;2022-09-27T13:30:53;101852.53;;;21.47;45.87
73220;BME280;61434;43.538;-5.688;2022-09-27T13:46:48;101847.16;;;21.70;45.61
73220;BME280;61434;43.538;-5.688;2022-09-27T13:49:38;101842.56;;;21.55;46.12
73220;BME280;61434;43.538;-5.688;2022-09-27T13:52:18;101847.69;;;21.66;46.84
73220;BME280;61434;43.538;-5.688;2022-09-27T13:54:56;101846.81;;;21.65;46.97
73220;BME280;61434;43.538;-5.688;2022-09-27T14:00:12;101848.19;;;21.69;46.74
73220;BME280;61434;43.538;-5.688;2022-09-27T14:05:17;101847.69;;;21.66;47.62
73220;BME280;61434;43.538;-5.688;2022-09-27T14:07:45;101855.50;;;21.85;47.89
73220;BME280;61434;43.538;-5.688;2022-09-27T14:10:16;101846.38;;;21.93;48.55
73220;BME280;61434;43.538;-5.688;2022-09-27T14:12:44;101844.88;;;21.82;49.59
73220;BME280;61434;43.538;-5.688;2022-09-27T14:15:39;101834.41;;;21.86;49.60
73220;BME280;61434;43.538;-5.688;2022-09-27T14:18:10;101839.41;;;21.74;50.31
73220;BME280;61434;43.538;-5.688;2022-09-27T14:20:39;101840.25;;;21.83;50.04
73220;BME280;61434;43.538;-5.688;2022-09-27T14:23:15;101850.81;;;21.94;50.03
73220;BME280;61434;43.538;-5.688;2022-09-27T14:25:46;101853.94;;;21.91;51.14
73220;BME280;61434;43.538;-5.688;2022-09-27T14:28:39;101849.94;;;22.01;51.35
73220;BME280;61434;43.538;-5.688;2022-09-27T14:31:17;101846.84;;;22.05;51.66
73220;BME280;61434;43.538;-5.688;2022-09-27T14:33:44;101855.34;;;21.78;52.68
73220;BME280;61434;43.538;-5.688;2022-09-27T14:36:28;101860.56;;;21.57;53.39
73220;BME280;61434;43.538;-5.688;2022-09-27T14:39:19;101862.47;;;21.57;53.91
73220;BME280;61434;43.538;-5.688;2022-09-27T14:41:46;101862.50;;;21.32;53.95
73220;BME280;61434;43.538;-5.688;2022-09-27T14:44:17;101852.88;;;21.44;53.21
73220;BME280;61434;43.538;-5.688;2022-09-27T14:46:43;101857.09;;;21.71;52.64
73220;BME280;61434;43.538;-5.688;2022-09-27T14:49:23;101849.63;;;21.49;53.01
73220;BME280;61434;43.538;-5.688;2022-09-27T14:51:53;101853.38;;;21.48;53.47
73220;BME280;61434;43.538;-5.688;2022-09-27T14:54:25;101846.00;;;21.57;52.46
73220;BME280;61434;43.538;-5.688;2022-09-27T14:56:52;101849.75;;;21.64;52.71
73220;BME280;61434;43.538;-5.688;2022-09-27T14:59:24;101848.25;;;21.45;52.49
73220;BME280;61434;43.538;-5.688;2022-09-27T15:01:56;101843.28;;;21.48;52.52
73220;BME280;61434;43.538;-5.688;2022-09-27T15:04:25;101846.72;;;21.42;53.16
73220;BME280;61434;43.538;-5.688;2022-09-27T15:06:53;101836.63;;;21.35;52.80
73220;BME280;61434;43.538;-5.688;2022-09-27T15:09:20;101838.13;;;21.45;52.92
73220;BME280;61434;43.538;-5.688;2022-09-27T15:11:50;101838.13;;;21.45;53.12
73220;BME280;61434;43.538;-5.688;2022-09-27T15:14:19;101844.50;;;21.38;53.12
73220;BME280;61434;43.538;-5.688;2022-09-27T15:16:47;101830.28;;;21.42;52.05